Mays Lick, Kentucky
Current Conditions -  °F | °C
As of 8:35 AM on Sunday 23 Nov 2014 (Local Time) from KFGX Reporting Station
Overcast Overcast  
Wind Chill: 50°   Ceiling: 4600
Heat Index: 50°   Visibility: 10mi
Dew Point: 37°   Wind: 0mph
Humidity: 61%   Direction: NA
Pressure: 30.02"   Gusts: NA
Location:  38.4934°N, 83.7754°W
Report Text: KFGX 231335Z AUTO 00000KT 10SM BKN046 BKN050 OVC120 10/03 A3002 RMK AO2 T01000027
Loading
Personal Weather Stations






























Interactive Weather Map New forecast layout! Learn more

10-Day Weather Forecast

Advertisements
Track Severe Weather on mobile